createdAt,value
2023-11-12T00:00:16.263Z,7.60
2023-11-12T00:05:21.011Z,7.50
2023-11-12T00:10:24.746Z,7.50
2023-11-12T00:15:28.457Z,7.40
2023-11-12T00:20:31.965Z,7.30
2023-11-12T00:25:36.046Z,7.30
2023-11-12T00:30:39.701Z,7.20
2023-11-12T00:35:43.505Z,7.20
2023-11-12T00:40:48.010Z,7.10
2023-11-12T00:45:59.512Z,7.10
2023-11-12T00:51:03.463Z,7.10
2023-11-12T00:56:09.196Z,7.00
2023-11-12T01:01:15.495Z,7.00
2023-11-12T01:06:19.244Z,7.00
2023-11-12T01:11:22.952Z,6.90
2023-11-12T01:16:27.196Z,6.90
2023-11-12T01:21:30.862Z,6.90
2023-11-12T01:26:35.244Z,6.90
2023-11-12T01:31:38.860Z,6.90
2023-11-12T01:36:42.693Z,6.80
2023-11-12T01:41:46.406Z,6.80
2023-11-12T01:46:52.646Z,6.80
2023-11-12T01:51:56.290Z,6.70
2023-11-12T01:57:01.769Z,6.70
2023-11-12T02:02:06.558Z,6.70
2023-11-12T02:07:10.190Z,6.60
2023-11-12T02:12:14.712Z,6.60
2023-11-12T02:17:18.490Z,6.50
2023-11-12T02:22:22.048Z,6.50
2023-11-12T02:27:25.609Z,6.50
2023-11-12T02:32:36.032Z,6.50
2023-11-12T02:37:40.054Z,6.40
2023-11-12T02:42:44.608Z,6.40
2023-11-12T02:47:48.642Z,6.40
2023-11-12T02:52:55.011Z,6.40
2023-11-12T02:57:59.666Z,6.40
2023-11-12T03:03:03.979Z,6.40
2023-11-12T03:08:07.900Z,6.40
2023-11-12T03:13:11.531Z,6.40
2023-11-12T03:18:15.377Z,6.40
2023-11-12T03:23:19.200Z,6.40
2023-11-12T03:28:22.751Z,6.40
2023-11-12T03:33:29.073Z,6.30
2023-11-12T03:38:33.138Z,6.30
2023-11-12T03:43:36.775Z,6.20
2023-11-12T03:48:40.515Z,6.20
2023-11-12T03:53:43.982Z,6.10
2023-11-12T03:58:47.832Z,6.10
2023-11-12T04:03:53.207Z,6.10
2023-11-12T04:08:57.049Z,6.10
2023-11-12T04:14:00.704Z,6.10
2023-11-12T04:19:05.013Z,6.10
2023-11-12T04:24:09.584Z,6.10
2023-11-12T04:29:14.569Z,6.10
2023-11-12T04:34:18.184Z,6.10
2023-11-12T04:39:21.938Z,6.10
2023-11-12T04:44:26.455Z,6.10
2023-11-12T04:49:30.180Z,6.10
2023-11-12T04:54:34.134Z,6.10
2023-11-12T04:59:42.164Z,6.00
2023-11-12T05:04:46.001Z,6.00
2023-11-12T05:09:49.793Z,6.00
2023-11-12T05:14:53.419Z,6.00
2023-11-12T05:19:57.246Z,6.00
2023-11-12T05:25:01.069Z,6.00
2023-11-12T05:30:05.222Z,6.00
2023-11-12T05:35:09.942Z,5.90
2023-11-12T05:40:13.885Z,5.90
2023-11-12T05:45:19.196Z,5.90
2023-11-12T05:50:24.401Z,5.90
2023-11-12T05:55:29.695Z,5.90
2023-11-12T06:00:33.729Z,5.90
2023-11-12T06:05:37.507Z,5.90
2023-11-12T06:10:44.425Z,5.90
2023-11-12T06:15:48.229Z,5.90
2023-11-12T06:20:52.010Z,5.80
2023-11-12T06:25:55.842Z,5.90
2023-11-12T06:30:59.383Z,5.90
2023-11-12T06:36:03.198Z,5.90
2023-11-12T06:41:09.852Z,6.00
2023-11-12T06:46:13.636Z,6.10
2023-11-12T06:51:25.097Z,6.30
2023-11-12T06:56:36.605Z,6.60
2023-11-12T07:01:40.372Z,6.90
2023-11-12T07:06:57.139Z,7.30
2023-11-12T07:12:08.571Z,7.60
2023-11-12T07:17:15.421Z,7.90
2023-11-12T07:22:19.947Z,8.10
2023-11-12T07:27:24.649Z,8.20
2023-11-12T07:32:28.344Z,8.30
2023-11-12T07:37:32.003Z,8.30
2023-11-12T07:42:35.962Z,8.30
2023-11-12T07:47:40.228Z,8.40
2023-11-12T07:52:44.155Z,8.50
2023-11-12T07:57:48.372Z,8.50
2023-11-12T08:02:53.072Z,8.50
2023-11-12T08:07:56.997Z,8.40
2023-11-12T08:13:00.744Z,8.40
2023-11-12T08:18:06.618Z,8.50
2023-11-12T08:23:10.459Z,8.60
2023-11-12T08:28:14.361Z,8.60
2023-11-12T08:33:18.632Z,8.60
2023-11-12T08:38:22.438Z,8.70
2023-11-12T08:43:26.032Z,8.90
2023-11-12T08:48:33.147Z,9.00
2023-11-12T08:53:38.363Z,9.10
2023-11-12T08:58:42.111Z,9.00
2023-11-12T09:03:45.774Z,9.10
2023-11-12T09:08:49.370Z,9.20
2023-11-12T09:13:52.993Z,9.40
2023-11-12T09:18:57.188Z,9.50
2023-11-12T09:24:01.357Z,9.70
2023-11-12T09:29:05.171Z,9.80
2023-11-12T09:34:08.886Z,10.00
2023-11-12T09:39:14.383Z,10.10
2023-11-12T09:44:35.434Z,10.20
2023-11-12T09:49:43.867Z,10.30
2023-11-12T09:54:48.607Z,10.20
2023-11-12T09:59:53.172Z,10.20
2023-11-12T10:05:02.137Z,10.50
2023-11-12T10:10:25.703Z,11.00
2023-11-12T10:15:34.948Z,11.60
2023-11-12T10:20:41.521Z,11.90
2023-11-12T10:25:49.712Z,12.20
2023-11-12T10:30:55.167Z,12.30
2023-11-12T10:36:10.206Z,12.30
2023-11-12T10:41:14.042Z,11.90
2023-11-12T10:46:17.889Z,11.50
2023-11-12T10:51:21.797Z,11.30
2023-11-12T10:56:28.484Z,11.20
2023-11-12T11:01:35.483Z,11.20
2023-11-12T11:06:42.345Z,11.20
2023-11-12T11:11:50.497Z,11.20
2023-11-12T11:16:54.984Z,11.10
2023-11-12T11:22:30.852Z,11.00
2023-11-12T11:27:34.751Z,10.80
2023-11-12T11:32:38.679Z,10.60
2023-11-12T11:38:11.466Z,10.50
2023-11-12T11:43:24.631Z,10.50
2023-11-12T11:48:28.975Z,10.40
2023-11-12T11:53:33.281Z,10.50
2023-11-12T11:58:52.860Z,10.50
2023-11-12T12:04:07.198Z,10.60
2023-11-12T12:09:18.052Z,10.70
2023-11-12T12:14:25.677Z,10.70
2023-11-12T12:19:29.436Z,10.80
2023-11-12T12:29:39.432Z,10.80
2023-11-12T12:34:46.315Z,10.60
2023-11-12T12:39:54.672Z,10.50
2023-11-12T12:44:59.904Z,10.60
2023-11-12T12:50:17.181Z,10.60
2023-11-12T12:55:22.678Z,10.60
2023-11-12T13:00:26.790Z,10.60
2023-11-12T13:05:30.418Z,10.70
2023-11-12T13:10:35.333Z,10.80
2023-11-12T13:15:39.156Z,10.80
2023-11-12T13:20:44.124Z,10.80
2023-11-12T13:25:51.164Z,10.80
2023-11-12T13:30:55.420Z,10.70
2023-11-12T13:36:01.273Z,10.70
2023-11-12T13:41:05.408Z,10.70
2023-11-12T13:46:09.113Z,10.60
2023-11-12T13:51:15.642Z,10.60
2023-11-12T13:56:19.341Z,10.50
2023-11-12T14:01:24.923Z,10.50
2023-11-12T14:06:28.561Z,10.40
2023-11-12T14:11:32.080Z,10.40
2023-11-12T14:16:39.004Z,10.30
2023-11-12T14:21:46.526Z,10.30
2023-11-12T14:26:51.177Z,10.20
2023-11-12T14:31:54.816Z,10.10
2023-11-12T14:36:58.886Z,10.00
2023-11-12T14:42:04.430Z,9.90
2023-11-12T14:47:07.998Z,9.80
2023-11-12T14:52:12.565Z,9.60
2023-11-12T14:57:17.864Z,9.30
2023-11-12T15:02:21.860Z,9.00
2023-11-12T15:07:25.786Z,8.70
2023-11-12T15:12:30.720Z,8.40
2023-11-12T15:17:34.328Z,8.20
2023-11-12T15:22:38.714Z,7.90
2023-11-12T15:27:46.587Z,7.70
2023-11-12T15:32:50.472Z,7.40
2023-11-12T15:37:54.284Z,7.30
2023-11-12T15:42:58.491Z,7.10
2023-11-12T15:48:02.107Z,7.10
2023-11-12T15:53:06.136Z,7.00
2023-11-12T15:58:12.369Z,6.90
2023-11-12T16:03:18.860Z,6.80
2023-11-12T16:08:22.943Z,6.80
2023-11-12T16:13:26.896Z,6.60
2023-11-12T16:18:30.341Z,6.60
2023-11-12T16:23:34.304Z,6.50
2023-11-12T16:28:39.544Z,6.40
2023-11-12T16:33:43.352Z,6.20
2023-11-12T16:38:46.911Z,6.00
2023-11-12T16:43:50.648Z,5.90
2023-11-12T16:48:54.968Z,5.70
2023-11-12T16:53:58.538Z,5.70
2023-11-12T16:59:02.034Z,5.60
2023-11-12T17:04:06.145Z,5.50
2023-11-12T17:09:13.417Z,5.50
2023-11-12T17:14:18.286Z,5.40
2023-11-12T17:19:22.379Z,5.40
2023-11-12T17:24:25.932Z,5.30
2023-11-12T17:29:29.564Z,5.30
2023-11-12T17:34:33.237Z,5.20
2023-11-12T17:39:37.148Z,5.20
2023-11-12T17:44:43.102Z,5.10
2023-11-12T17:49:56.470Z,5.00
2023-11-12T17:55:00.250Z,5.00
2023-11-12T18:00:07.372Z,4.90
2023-11-12T18:05:11.346Z,4.90
2023-11-12T18:10:15.206Z,4.90
2023-11-12T18:15:20.517Z,4.80
2023-11-12T18:20:25.207Z,4.80
2023-11-12T18:25:28.682Z,4.70
2023-11-12T18:30:32.698Z,4.60
2023-11-12T18:35:36.934Z,4.50
2023-11-12T18:40:43.259Z,4.40
2023-11-12T18:45:46.830Z,4.30
2023-11-12T18:50:52.120Z,4.20
2023-11-12T18:55:56.215Z,4.10
2023-11-12T19:01:00.768Z,4.00
2023-11-12T19:06:04.584Z,3.90
2023-11-12T19:11:08.602Z,3.90
2023-11-12T19:16:12.439Z,3.80
2023-11-12T19:21:16.427Z,3.80
2023-11-12T19:26:23.564Z,3.60
2023-11-12T19:31:33.163Z,3.60
2023-11-12T19:36:41.514Z,3.60
2023-11-12T19:41:45.297Z,3.60
2023-11-12T19:46:49.205Z,3.70
2023-11-12T19:51:52.756Z,3.70
2023-11-12T19:56:58.779Z,3.60
2023-11-12T20:02:07.625Z,3.50
2023-11-12T20:07:11.694Z,3.50
2023-11-12T20:12:15.554Z,3.50
2023-11-12T20:17:19.204Z,3.40
2023-11-12T20:22:22.959Z,3.30
2023-11-12T20:27:26.633Z,3.30
2023-11-12T20:32:30.301Z,3.30
2023-11-12T20:37:34.029Z,3.20
2023-11-12T20:42:38.884Z,3.20
2023-11-12T20:47:42.582Z,3.10
2023-11-12T20:52:46.975Z,3.10
2023-11-12T20:57:53.477Z,3.00
2023-11-12T21:02:57.369Z,3.10
2023-11-12T21:08:01.368Z,3.20
2023-11-12T21:13:04.908Z,3.30
2023-11-12T21:18:12.709Z,3.40
2023-11-12T21:23:16.343Z,3.50
2023-11-12T21:28:21.599Z,3.60
2023-11-12T21:33:25.433Z,3.70
2023-11-12T21:38:28.996Z,3.70
2023-11-12T21:43:33.865Z,3.70
2023-11-12T21:48:38.975Z,3.70
2023-11-12T21:53:42.763Z,3.80
2023-11-12T21:58:46.875Z,3.70
2023-11-12T22:03:51.513Z,3.60
2023-11-12T22:08:56.357Z,3.60
2023-11-12T22:14:00.770Z,3.60
2023-11-12T22:19:08.978Z,3.60
2023-11-12T22:24:12.710Z,3.50
2023-11-12T22:29:16.207Z,3.50
2023-11-12T22:34:22.434Z,3.50
2023-11-12T22:39:26.338Z,3.50
2023-11-12T22:44:30.320Z,3.50
2023-11-12T22:49:33.973Z,3.50
2023-11-12T22:54:38.376Z,3.50
2023-11-12T22:59:42.531Z,3.40
2023-11-12T23:04:46.124Z,3.40
2023-11-12T23:09:49.935Z,3.40
2023-11-12T23:14:53.482Z,3.30
2023-11-12T23:19:57.127Z,3.30
2023-11-12T23:25:01.805Z,3.40
2023-11-12T23:30:08.575Z,3.50
2023-11-12T23:35:12.489Z,3.60
2023-11-12T23:40:16.398Z,3.70
2023-11-12T23:45:20.042Z,3.80
2023-11-12T23:50:26.859Z,3.90
2023-11-12T23:55:30.475Z,3.90
